Huvudsida
METAR-TAF:

METAR-TAF

Flygplatser :

Rand Airport

Germiston, Sydafrika

latitud: 26-14-33S, longitud: 028-09-04E, höjd: 1671 m

Aktuellt väderrapport

Denna rapport gjordes för 7 timmar och 11 minuter sedan, klockan 06:00 UTC
Vind 6 kt från syd/sydväst
Temperatur 10°C
Fuktighet 21%
Tryck 1024 hPa
Sikt: 8000 m

METAR: FAGM 190600Z 20006KT 8000 NSC 10/M11 Q1024

Tid: 15:11 (13:11 UTC)


TAF: saknas

Aktuella väderrapporter och prognoser från 4000 flygplatser (METAR- och TAF-rapporter).

De tillgängliga stationerna syns som gula och röda prickar på kartan.

För musen över prickarna för att se namnen på stationerna.

Klicka sedan för att få väderrapporter och prognoser.

För att ändra kartan: Klicka på de gröna knapparna med ett svart kors på för att zooma in; den gröna knappen med ett streck på för att zooma ut; eller på de gröna pilarna för angränsande kartor.


METAR-TAF: